Flight Track Log - Related Links

Times and Time Zones

All times are in EDT time to prevent confusion due to time zone crossing. See the AWE1940 flight status page for this flight to view local times or setup timezone preferences in your user account.

Time Position Orientation Groundspeed Altitude Reporting Facility
EDT Latitude Longitude Course Direction KTS MPH feet Rate Location/Type
Wed 06:46:15 PM 29.9572 -95.3392 90° East 203 234 800  Level Houston Center
Wed 06:47:29 PM 29.9139 -95.2794 130° Southeast 216 249 3,300 1,949 Climbing Houston Center
Wed 06:48:12 PM 29.8831 -95.2367 130° Southeast 234 269 4,600 2,423 Climbing Houston Center
Wed 06:49:00 PM 29.9834 -94.8272 90° East  Level FlightAware Approximate
Wed 06:49:13 PM 29.8422 -95.1622 122° Southeast 272 313 7,500  Level Houston Center
Wed 06:50:00 PM 29.9834 -94.7007 90° East  Level FlightAware Approximate
Wed 06:50:16 PM 29.8625 -95.0750 75° East 281 323 10,200  Level Houston Center
Wed 06:51:00 PM 29.9833 -94.5742 90° East  Level FlightAware Approximate
Wed 06:51:18 PM 29.8869 -94.9767 74° East 319 367 11,400  Level Houston Center
Wed 06:52:20 PM 29.9161 -94.8628 74° East 360 414 13,400 2,032 Climbing Houston Center
Wed 06:53:22 PM 29.9458 -94.7444 74° East 378 435 15,600 2,371 Climbing Houston Center
Wed 06:54:24 PM 29.9828 -94.5983 74° East 391 450 18,300 2,081 Climbing Houston Center
Wed 06:55:26 PM 29.9931 -94.4800 84° East 397 457 19,900 1,597 Climbing Houston Center
Wed 06:56:28 PM 29.9947 -94.3444 89° East 416 479 21,600 1,742 Climbing Houston Center
Wed 06:57:30 PM 30.0086 -94.2111 83° East 420 483 23,500 1,839 Climbing Houston Center
Wed 06:58:32 PM 30.0297 -94.0486 81° East 425 489 25,400 1,597 Climbing Houston Center
Wed 06:59:34 PM 30.0464 -93.9106 82° East 433 498 26,800 1,355 Climbing Houston Center
Wed 07:00:36 PM 30.0628 -93.7717 82° East 439 505 28,200 1,548 Climbing Houston Center
Wed 07:01:38 PM 30.0792 -93.6328 82° East 440 506 30,000 1,500 Climbing Houston Center
Wed 07:02:40 PM 30.0992 -93.4689 82° East 438 504 31,300 1,113 Climbing Houston Center
Wed 07:03:42 PM 30.1142 -93.3306 83° East 441 507 32,300 1,065 Climbing Houston Center
Wed 07:04:44 PM 30.1306 -93.1928 82° East 439 505 33,500 968 Climbing Houston Center
Wed 07:05:46 PM 30.1642 -93.0619 73° East 435 501 34,300 726 Climbing Houston Center
Wed 07:06:48 PM 30.2283 -92.9483 57° Northeast 427 491 35,000 336 Climbing Houston Center
Wed 07:07:51 PM 30.3042 -92.8086 58° Northeast 430 495 35,000  Level Houston Center
Wed 07:08:53 PM 30.3667 -92.6917 58° Northeast 431 496 35,000  Level Houston Center
Wed 07:09:54 PM 30.4303 -92.5753 58° Northeast 430 495 35,000  Level Houston Center
Wed 07:10:56 PM 30.4950 -92.4539 58° Northeast 428 493 35,000  Level Houston Center
Wed 07:11:58 PM 30.5583 -92.3372 58° Northeast 431 496 35,000  Level Houston Center
Wed 07:13:00 PM 30.6219 -92.2194 58° Northeast 432 497 35,000  Level Houston Center
Wed 07:14:02 PM 30.6967 -92.0794 58° Northeast 428 493 35,000  Level Houston Center
Wed 07:15:04 PM 30.7606 -91.9628 57° Northeast 430 495 35,000  Level Houston Center
Wed 07:16:06 PM 30.8228 -91.8450 58° Northeast 429 494 35,000  Level Houston Center
Wed 07:17:08 PM 30.8842 -91.7278 59° Northeast 428 493 35,000  Level Houston Center
Wed 07:18:10 PM 30.9475 -91.6097 58° Northeast 431 496 35,000  Level Houston Center
Wed 07:19:12 PM 31.0236 -91.4675 58° Northeast 432 497 35,000  Level Houston Center
Wed 07:20:14 PM 31.0817 -91.3564 59° Northeast 430 495 35,000  Level Houston Center
Wed 07:21:16 PM 31.1447 -91.2383 58° Northeast 429 494 35,000  Level Houston Center
Wed 07:22:18 PM 31.2061 -91.1197 59° Northeast 428 493 35,000  Level Houston Center
Wed 07:23:20 PM 31.2672 -91.0000 59° Northeast 427 491 35,000  Level Houston Center
Wed 07:24:22 PM 31.3428 -90.8561 58° Northeast 431 496 35,000  Level Houston Center
Wed 07:25:24 PM 31.4053 -90.7356 59° Northeast 433 498 35,000  Level Houston Center
Wed 07:26:26 PM 31.4675 -90.6150 59° Northeast 431 496 35,000  Level Houston Center
Wed 07:27:28 PM 31.5292 -90.4942 59° Northeast 432 497 35,000  Level Houston Center
Wed 07:28:30 PM 31.5911 -90.3733 59° Northeast 432 497 35,000  Level Houston Center
Wed 07:29:32 PM 31.6406 -90.2767 59° Northeast 432 497 35,000  Level Houston Center
Wed 07:30:34 PM 31.7136 -90.1314 59° Northeast 431 496 35,000  Level Houston Center
Wed 07:31:36 PM 31.7875 -89.9869 59° Northeast 430 495 35,000  Level Houston Center
Wed 07:32:38 PM 31.8486 -89.8667 59° Northeast 428 493 35,000  Level Houston Center
Wed 07:33:40 PM 31.9042 -89.7550 60° Northeast 430 495 35,000  Level Houston Center
Wed 07:34:42 PM 31.9656 -89.6325 59° Northeast 432 497 35,000  Level Houston Center
Wed 07:35:43 PM 32.0406 -89.4825 59° Northeast 424 488 35,000  Level Memphis Center
Wed 07:36:43 PM 32.1022 -89.3617 59° Northeast 424 488 35,000  Level Memphis Center
Wed 07:37:43 PM 32.1636 -89.2383 60° Northeast 424 488 35,000  Level Memphis Center
Wed 07:38:43 PM 32.2231 -89.1147 60° Northeast 424 488 35,000  Level Memphis Center
Wed 07:39:43 PM 32.2803 -89.0058 58° Northeast 429 494 35,000  Level Memphis Center
Wed 07:40:43 PM 32.3394 -88.8794 61° Northeast 429 494 35,000  Level Memphis Center
Wed 07:41:43 PM 32.4028 -88.7556 59° Northeast 429 494 35,000  Level Memphis Center
Wed 07:42:43 PM 32.4617 -88.6314 61° Northeast 429 494 35,000  Level Memphis Center
Wed 07:43:43 PM 32.5183 -88.5047 62° Northeast 424 488 35,000  Level Memphis Center
Wed 07:44:43 PM 32.5767 -88.3778 61° Northeast 424 488 35,000  Level Memphis Center
Wed 07:46:30 PM 32.6817 -88.1625 60° Northeast 451 519 35,000  Level Atlanta Center
Wed 07:47:30 PM 32.7450 -88.0150 63° Northeast 446 513 35,000  Level Atlanta Center
Wed 07:48:30 PM 32.8033 -87.8889 61° Northeast 440 506 35,000  Level Atlanta Center
Wed 07:49:30 PM 32.8636 -87.7606 61° Northeast 434 499 35,000  Level Atlanta Center
Wed 07:50:30 PM 32.9217 -87.6319 62° Northeast 434 499 35,000  Level Atlanta Center
Wed 07:51:30 PM 32.9706 -87.5300 60° Northeast 434 499 35,000  Level Atlanta Center
Wed 07:52:30 PM 33.0331 -87.3764 64° Northeast 424 488 35,000  Level Atlanta Center
Wed 07:53:30 PM 33.0928 -87.2472 61° Northeast 429 494 35,000  Level Atlanta Center
Wed 07:54:30 PM 33.1483 -87.1203 62° Northeast 429 494 35,000  Level Atlanta Center
Wed 07:55:30 PM 33.2053 -87.0081 59° Northeast 429 494 35,000  Level Atlanta Center
Wed 07:56:30 PM 33.2483 -86.8681 70° East 429 494 35,000  Level Atlanta Center
Wed 07:57:30 PM 33.2681 -86.7294 80° East 433 498 35,000  Level Atlanta Center
Wed 07:58:30 PM 33.2964 -86.5764 77° East 439 505 35,000  Level Atlanta Center
Wed 07:59:30 PM 33.3114 -86.4475 82° East 439 505 35,000  Level Atlanta Center
Wed 08:00:30 PM 33.3417 -86.2867 77° East 439 505 35,000  Level Atlanta Center
Wed 08:01:30 PM 33.3650 -86.1456 79° East 444 511 35,000  Level Atlanta Center
Wed 08:02:30 PM 33.3883 -86.0019 79° East 444 511 35,000  Level Atlanta Center
Wed 08:03:30 PM 33.4136 -85.8581 78° East 444 511 35,000  Level Atlanta Center
Wed 08:04:30 PM 33.4364 -85.7067 80° East 433 498 35,000  Level Atlanta Center
Wed 08:05:30 PM 33.4592 -85.5653 79° East 433 498 35,000  Level Atlanta Center
Wed 08:06:30 PM 33.4817 -85.4236 79° East 427 491 35,000  Level Atlanta Center
Wed 08:07:30 PM 33.5019 -85.2819 80° East 427 491 35,000  Level Atlanta Center
Wed 08:08:30 PM 33.5242 -85.1403 79° East 427 491 35,000  Level Atlanta Center
Wed 08:09:30 PM 33.5464 -84.9983 79° East 427 491 35,000  Level Atlanta Center
Wed 08:10:30 PM 33.5661 -84.8592 80° East 427 491 35,000  Level Atlanta Center
Wed 08:11:30 PM 33.5878 -84.7147 80° East 427 491 35,000  Level Atlanta Center
Wed 08:12:30 PM 33.6053 -84.5875 81° East 427 491 35,000  Level Atlanta Center
Wed 08:13:30 PM 33.6286 -84.4356 80° East 427 491 35,000  Level Atlanta Center
Wed 08:14:30 PM 33.6686 -84.3008 70° East 422 486 35,000  Level Atlanta Center
Wed 08:15:30 PM 33.7044 -84.1611 73° East 427 491 35,000  Level Atlanta Center
Wed 08:16:30 PM 33.7419 -84.0239 72° East 427 491 35,000  Level Atlanta Center
Wed 08:17:30 PM 33.7794 -83.8889 71° East 421 484 35,000  Level Atlanta Center
Wed 08:18:30 PM 33.8189 -83.7536 71° East 421 484 35,000 -350 Level Atlanta Center
Wed 08:19:30 PM 33.8561 -83.6186 72° East 426 490 34,300 -800 Descending Atlanta Center
Wed 08:20:30 PM 33.8931 -83.4783 72° East 431 496 33,400 -850 Descending Atlanta Center
Wed 08:21:30 PM 33.9258 -83.3578 72° East 431 496 32,600 -900 Descending Atlanta Center
Wed 08:22:30 PM 33.9669 -83.2172 71° East 431 496 31,600 -1,000 Descending Atlanta Center
Wed 08:23:30 PM 34.0033 -83.0767 73° East 436 502 30,600 -950 Descending Atlanta Center
Wed 08:24:30 PM 34.0439 -82.9306 71° East 447 514 29,700 -1,000 Descending Atlanta Center
Wed 08:25:30 PM 34.0800 -82.7897 73° East 441 507 28,600 -1,050 Descending Atlanta Center
Wed 08:26:30 PM 34.1183 -82.6511 71° East 441 507 27,600 -1,050 Descending Atlanta Center
Wed 08:27:30 PM 34.1939 -82.5169 56° Northeast 435 501 26,500 -1,050 Descending Atlanta Center
Wed 08:28:30 PM 34.2592 -82.3975 57° Northeast 430 495 25,500 -1,100 Descending Atlanta Center
Wed 08:29:30 PM 34.3244 -82.2831 55° Northeast 425 489 24,300 -1,700 Descending Atlanta Center
Wed 08:30:30 PM 34.3872 -82.1661 57° Northeast 419 482 22,100 -2,200 Descending Atlanta Center
Wed 08:31:30 PM 34.4522 -82.0536 55° Northeast 414 476 19,900 -2,200 Descending Atlanta Center
Wed 08:32:30 PM 34.5131 -81.9414 57° Northeast 409 471 17,700 -2,150 Descending Atlanta Center
Wed 08:33:30 PM 34.5717 -81.8364 56° Northeast 396 456 15,600 -2,050 Descending Atlanta Center
Wed 08:34:30 PM 34.6261 -81.7317 58° Northeast 384 442 13,600 -1,850 Descending Atlanta Center
Wed 08:35:30 PM 34.6850 -81.6364 53° Northeast 356 410 11,900 -800 Descending Atlanta Center
Wed 08:36:30 PM 34.7331 -81.5442 58° Northeast 341 392 12,000 50 Climbing Atlanta Center
Wed 08:37:30 PM 34.7900 -81.4742 45° Northeast 302 348 12,000 -500 Level Atlanta Center
Wed 08:38:30 PM 34.8408 -81.4067 47° Northeast 295 339 11,000 -1,333 Descending Atlanta Center
Wed 08:39:00 PM 34.8753 -81.3625 46° Northeast 305 351 10,000 -1,000 Descending Atlanta Center
Wed 08:39:30 PM 34.8997 -81.3289 48° Northeast 295 339 10,000  Level Atlanta Center
Wed 08:40:01 PM 34.9322 -81.2872 46° Northeast 300 345 10,000  Level Atlanta Center
Wed 08:41:02 PM 34.9950 -81.2117 45° Northeast 293 337 10,000 -517 Level Atlanta Center
Wed 08:41:57 PM 35.0458 -81.1467 46° Northeast 293 337 9,000 -517 Descending Atlanta Center
Wed 08:42:58 PM 35.1175 -81.0983 29° Northeast 287 330 9,000 -65 Level Atlanta Center
Wed 08:43:30 PM 35.1442 -81.0797 30° Northeast 282 325 8,900 -783 Descending Atlanta Center
Wed 08:44:30 PM 35.2061 -81.0419 26° Northeast 253 291 7,800 -950 Descending Atlanta Center
Wed 08:45:30 PM 35.2569 -80.9917 39° Northeast 234 269 7,000 -1,067 Descending Atlanta Center
Wed 08:46:00 PM 35.2831 -80.9575 47° Northeast 239 275 6,200 -659 Descending Atlanta Center
Wed 08:47:01 PM 35.3336 -80.8947 45° Northeast 249 287 6,000 -639 Descending Atlanta Center
Wed 08:48:02 PM 35.3822 -80.8367 44° Northeast 244 281 4,900 -984 Descending Atlanta Center
Wed 08:49:03 PM 35.4181 -80.7717 56° Northeast 230 265 4,000 -446 Descending Atlanta Center
Wed 08:50:03 PM 35.3719 -80.7581 166° South 187 215 4,000 -52 Level Atlanta Center
Wed 08:50:59 PM 35.3331 -80.7853 210° Southwest 189 217 3,900 -107 Descending Atlanta Center

Login

Don't have an account? Register now (free) for customized features, flight alerts, and more!